Terminal Aerodrome Forecast
Issued by NWS Twin Cities, MN

Home | Current Version | Previous Version | Graphics & Text | Print | Product List | Glossary On
Versions: 1 2 3 4 5 6 7 8 9 10 11 12 13 14 15 16 17 18 19 20 21 22 23 24 25 26
000
FTUS43 KMPX 240900 AAB
TAFMSP
TAF AMD
KMSP 240900Z 2409/2512 12010KT P6SM VCSH BKN012 OVC040
     FM241200 13012KT P6SM BKN015
     FM241400 14012KT P6SM BKN020
     FM241700 17013G20KT P6SM SCT020
     FM250200 21008KT P6SM VCTS SCT030CB BKN070
     FM250600 25005KT P6SM SCT025 BKN120=

USA.gov is the U.S. government's official web portal to all federal, state and local government web resources and services.